Time;durP1;ratioP1;P1;durP2;ratioP2;P2;SDS_P1;SDS_P2;PMS_P1;PMS_P2;Temp;Humidity;BMP_temperature;BMP_pressure;BME280_temperature;BME280_humidity;BME280_pressure;Samples;Min_cycle;Max_cycle;Signal;HPM_P1;HPM_P2
2021/01/16 00:01:06;;;;;;;19.80;8.03;;;;;;;-9.68;76.00;98869.02;1820862;78;21156;-76
2021/01/16 00:03:33;;;;;;;19.77;7.78;;;;;;;-9.66;75.69;98876.80;1820834;77;22425;-76
2021/01/16 00:06:03;;;;;;;18.73;7.15;;;;;;;-9.65;75.62;98871.79;1820708;78;21607;-76
2021/01/16 00:08:32;;;;;;;21.37;8.15;;;;;;;-9.64;75.50;98874.75;1820838;78;21164;-76
2021/01/16 00:11:01;;;;;;;24.35;8.48;;;;;;;-9.63;75.62;98872.41;1777392;78;21061;-76
2021/01/16 00:13:33;;;;;;;20.15;7.67;;;;;;;-9.60;75.74;98872.52;1821194;78;21192;-76
2021/01/16 00:16:03;;;;;;;18.02;7.10;;;;;;;-9.59;75.77;98868.32;1821273;78;21197;-77
2021/01/16 00:18:30;;;;;;;19.50;6.70;;;;;;;-9.56;75.67;98863.93;1821019;78;21180;-75
2021/01/16 00:20:59;;;;;;;23.92;8.25;;;;;;;-9.52;76.03;98863.02;1821110;78;20934;-74
2021/01/16 00:23:28;;;;;;;21.77;8.43;;;;;;;-9.48;76.03;98865.06;1821094;78;21119;-76
2021/01/16 00:25:58;;;;;;;17.27;7.40;;;;;;;-9.42;75.86;98858.12;1821134;78;22199;-76
2021/01/16 00:28:31;;;;;;;23.67;8.80;;;;;;;-9.39;75.84;98850.55;1821197;78;22222;-75
2021/01/16 00:30:59;;;;;;;20.43;7.47;;;;;;;-9.36;75.95;98855.46;1821021;78;21071;-75
2021/01/16 00:33:29;;;;;;;19.75;7.15;;;;;;;-9.35;75.77;98851.78;1821104;78;20998;-76
2021/01/16 00:35:57;;;;;;;20.45;7.17;;;;;;;-9.36;75.46;98860.78;1821100;78;21612;-75
2021/01/16 00:38:24;;;;;;;20.25;7.15;;;;;;;-9.36;75.48;98857.30;1821050;78;21160;-76
2021/01/16 00:40:53;;;;;;;16.23;7.65;;;;;;;-9.36;75.78;98854.12;1821010;78;21405;-76
2021/01/16 00:43:21;;;;;;;20.08;7.15;;;;;;;-9.34;75.62;98850.76;1820962;78;21108;-76
2021/01/16 00:45:50;;;;;;;18.70;7.90;;;;;;;-9.32;75.59;98851.88;1821043;78;21168;-75
2021/01/16 00:48:20;;;;;;;18.02;7.03;;;;;;;-9.31;75.71;98855.36;1821167;78;21148;-75
2021/01/16 00:50:49;;;;;;;17.42;7.17;;;;;;;-9.27;75.91;98855.25;1821039;78;21022;-75
2021/01/16 00:53:18;;;;;;;17.48;7.30;;;;;;;-9.27;75.76;98856.08;1821253;78;21358;-75
2021/01/16 00:56:02;;;;;;;16.02;7.03;;;;;;;-9.22;75.61;98858.91;1888072;76;22727;-75
2021/01/16 00:58:31;;;;;;;17.77;7.05;;;;;;;-9.24;76.07;98856.96;1772123;80;20994;-75
2021/01/16 01:01:01;;;;;;;17.70;7.58;;;;;;;-9.25;76.02;98861.19;1847018;77;21580;-75
2021/01/16 01:03:30;;;;;;;16.15;6.58;;;;;;;-9.28;75.53;98856.28;1849284;77;22190;-77
2021/01/16 01:05:59;;;;;;;17.20;7.35;;;;;;;-9.30;75.72;98853.01;1849317;77;20966;-76
2021/01/16 01:08:29;;;;;;;19.57;8.20;;;;;;;-9.30;76.65;98851.68;1849242;77;20974;-75
2021/01/16 01:10:57;;;;;;;18.45;8.05;;;;;;;-9.27;76.71;98851.27;1849414;77;21001;-76
2021/01/16 01:13:25;;;;;;;19.80;7.75;;;;;;;-9.26;76.31;98852.91;1849876;77;21588;-75
2021/01/16 01:15:52;;;;;;;21.55;9.08;;;;;;;-9.28;76.12;98850.96;1849872;77;21460;-76
2021/01/16 01:18:21;;;;;;;22.85;9.03;;;;;;;-9.29;76.08;98851.98;1849914;77;20914;-76
2021/01/16 01:20:49;;;;;;;19.35;7.75;;;;;;;-9.32;75.74;98849.73;1819841;77;21060;-76
2021/01/16 01:23:16;;;;;;;22.20;8.28;;;;;;;-9.37;75.64;98849.84;1849934;77;20958;-77
2021/01/16 01:25:44;;;;;;;20.60;8.05;;;;;;;-9.38;75.52;98854.03;1849933;77;21374;-76
2021/01/16 01:28:11;;;;;;;20.23;8.90;;;;;;;-9.37;76.43;98848.51;1846212;77;20938;-78
2021/01/16 01:30:40;;;;;;;16.80;7.03;;;;;;;-9.34;76.24;98853.42;1814862;79;20974;-78
2021/01/16 01:33:15;;;;;;;18.15;7.75;;;;;;;-9.34;75.90;98849.43;1814862;79;21516;-78
2021/01/16 01:35:44;;;;;;;18.62;7.83;;;;;;;-9.38;75.69;98856.69;1814997;79;21462;-78
2021/01/16 01:38:19;;;;;;;18.55;7.75;;;;;;;-9.39;76.37;98856.38;1814913;78;21126;-78
2021/01/16 01:40:46;;;;;;;15.93;6.28;;;;;;;-9.38;75.98;98862.00;1814911;79;21548;-79
2021/01/16 01:43:14;;;;;;;16.35;6.62;;;;;;;-9.40;75.92;98854.23;1814950;79;20938;-78
2021/01/16 01:45:41;;;;;;;16.45;6.87;;;;;;;-9.38;75.87;98854.84;1814819;79;20922;-78
2021/01/16 01:48:10;;;;;;;13.72;6.17;;;;;;;-9.35;76.31;98855.77;1814969;79;20962;-79
2021/01/16 01:50:38;;;;;;;14.10;5.87;;;;;;;-9.35;75.73;98863.74;1814990;79;22107;-77
2021/01/16 01:53:07;;;;;;;16.85;6.70;;;;;;;-9.36;75.78;98863.44;1814791;79;20998;-76
2021/01/16 01:55:34;;;;;;;15.65;6.75;;;;;;;-9.36;75.77;98870.08;1814682;79;21152;-76
2021/01/16 01:58:04;;;;;;;30.75;8.63;;;;;;;-9.35;76.13;98866.40;1785945;79;21063;-75
2021/01/16 02:00:32;;;;;;;26.95;8.38;;;;;;;-9.33;76.27;98863.53;1814867;79;20922;-76
2021/01/16 02:03:00;;;;;;;14.75;6.15;;;;;;;-9.31;76.15;98865.99;1814951;79;21441;-75
2021/01/16 02:05:27;;;;;;;12.98;5.47;;;;;;;-9.31;76.74;98869.47;1785811;79;21136;-75
2021/01/16 02:07:55;;;;;;;13.88;5.80;;;;;;;-9.36;75.76;98867.42;1814233;79;20986;-75
2021/01/16 02:10:23;;;;;;;14.50;5.28;;;;;;;-9.40;75.38;98865.37;1814260;79;20923;-75
2021/01/16 02:12:56;;;;;;;9.88;4.33;;;;;;;-9.48;75.02;98873.55;1814299;78;21462;-74
2021/01/16 02:15:45;;;;;;;;;;;;;;;-9.53;75.88;98873.34;1816946;78;21191;-77
2021/01/16 02:18:21;;;;;;;15.75;6.25;;;;;;;-9.50;76.37;98879.58;1814210;79;20113;-76
2021/01/16 02:20:49;;;;;;;10.55;5.03;;;;;;;-9.55;76.06;98866.08;1814311;79;20887;-78
2021/01/16 02:23:31;;;;;;;17.95;5.85;;;;;;;-9.58;76.50;98873.95;1814228;79;21034;-77
2021/01/16 02:26:17;;;;;;;;;;;;;;;-9.55;77.40;98874.05;1817023;79;20910;-74
2021/01/16 02:28:59;;;;;;;14.45;5.53;;;;;;;-9.57;77.04;98866.28;1814231;78;21193;-77
2021/01/16 02:31:30;;;;;;;14.78;5.30;;;;;;;-9.65;77.12;98865.14;1814353;78;21548;-78
2021/01/16 02:33:58;;;;;;;20.60;6.55;;;;;;;-9.69;77.93;98870.05;1814345;79;21549;-76
2021/01/16 02:37:03;;;;;;;14.55;6.05;;;;;;;-9.70;78.35;98868.41;1814226;79;20986;-75
2021/01/16 02:40:03;;;;;;;15.28;6.78;;;;;;;-9.75;78.47;98868.20;1814399;78;21460;-76
2021/01/16 02:43:11;;;;;;;13.13;6.22;;;;;;;-9.81;79.53;98870.33;1814416;79;21183;-77
2021/01/16 02:45:42;;;;;;;20.27;5.65;;;;;;;-9.81;79.53;98870.33;1814231;79;20930;-76
2021/01/16 02:48:18;;;;;;;18.67;6.78;;;;;;;-9.77;79.54;98876.06;1814353;79;20919;-76
2021/01/16 02:50:59;;;;;;;14.45;6.00;;;;;;;-9.75;79.43;98885.46;1888712;76;22293;-77
2021/01/16 02:53:27;;;;;;;16.25;5.60;;;;;;;-9.81;79.31;98889.43;1775410;80;20978;-78
2021/01/16 02:55:54;;;;;;;14.10;5.22;;;;;;;-9.87;79.30;98891.59;1819833;77;21199;-77
2021/01/16 02:58:22;;;;;;;15.53;5.47;;;;;;;-9.90;79.20;98893.31;1849865;77;21469;-78
2021/01/16 03:00:50;;;;;;;17.25;6.67;;;;;;;-9.93;79.09;98898.52;1849970;77;20919;-78
2021/01/16 03:03:17;;;;;;;18.67;6.62;;;;;;;-9.95;78.93;98895.75;1849947;77;21132;-75
2021/01/16 03:05:45;;;;;;;14.50;5.42;;;;;;;-10.01;78.58;98902.68;1850063;77;21600;-76
2021/01/16 03:08:12;;;;;;;17.48;5.67;;;;;;;-10.13;77.75;98899.78;1850033;77;22214;-78
2021/01/16 03:10:40;;;;;;;14.07;5.37;;;;;;;-10.27;77.63;98896.80;1792163;77;20991;-78
2021/01/16 03:13:07;;;;;;;15.45;5.58;;;;;;;-10.42;77.47;98892.16;1819931;77;21500;-76
2021/01/16 03:15:35;;;;;;;12.93;5.67;;;;;;;-10.57;77.46;98901.57;1820054;77;21021;-76
2021/01/16 03:18:04;;;;;;;16.57;6.08;;;;;;;-10.69;77.49;98909.26;1849962;77;20906;-75
2021/01/16 03:20:32;;;;;;;18.98;6.25;;;;;;;-10.76;77.70;98911.55;1849953;77;21250;-76
2021/01/16 03:23:01;;;;;;;15.38;5.80;;;;;;;-10.76;78.17;98911.55;1849848;77;21029;-76
2021/01/16 03:25:31;;;;;;;15.90;5.85;;;;;;;-10.75;78.09;98909.22;1820131;77;21501;-76
2021/01/16 03:28:01;;;;;;;15.68;6.30;;;;;;;-10.81;77.70;98906.02;1849327;77;20918;-76
2021/01/16 03:30:31;;;;;;;17.87;6.12;;;;;;;-10.88;77.87;98913.92;1816666;79;20947;-77
2021/01/16 03:32:58;;;;;;;18.67;7.28;;;;;;;-10.87;78.27;98914.23;1775373;80;21327;-79
2021/01/16 03:35:26;;;;;;;12.68;5.12;;;;;;;-10.84;78.04;98924.45;1816507;79;21009;-78
2021/01/16 03:37:55;;;;;;;20.02;6.12;;;;;;;-10.93;77.12;98917.66;1816597;79;20906;-77
2021/01/16 03:40:23;;;;;;;17.57;5.83;;;;;;;-11.03;76.88;98918.53;1775327;80;20945;-78
2021/01/16 03:42:52;;;;;;;17.70;6.22;;;;;;;-11.11;76.73;98916.02;1816623;79;20938;-79
2021/01/16 03:45:22;;;;;;;11.43;4.12;;;;;;;-11.22;76.38;98913.39;1775347;80;22328;-78
2021/01/16 03:47:51;;;;;;;22.50;6.42;;;;;;;-11.30;75.96;98919.33;1815922;79;20947;-77
2021/01/16 03:50:20;;;;;;;17.55;6.35;;;;;;;-11.39;76.11;98934.03;1760259;80;20979;-75
2021/01/16 03:52:48;;;;;;;19.05;6.47;;;;;;;-11.47;76.07;98928.86;1721099;83;20945;-75
2021/01/16 03:55:16;;;;;;;14.07;5.35;;;;;;;-11.56;75.34;98931.86;1732007;82;21048;-76
2021/01/16 03:57:43;;;;;;;16.40;5.95;;;;;;;-11.71;74.98;98922.64;1732012;82;21053;-75
2021/01/16 04:00:11;;;;;;;14.38;5.87;;;;;;;-11.85;75.24;98936.78;1731853;82;20930;-78
2021/01/16 04:02:39;;;;;;;16.12;5.87;;;;;;;-11.94;74.88;98935.25;1731480;82;21151;-78
2021/01/16 04:05:09;;;;;;;13.32;5.40;;;;;;;-12.03;74.89;98943.80;1731427;82;20993;-79
2021/01/16 04:07:37;;;;;;;15.95;5.42;;;;;;;-12.11;74.70;98943.91;1731503;82;21005;-78
2021/01/16 04:10:06;;;;;;;16.97;5.55;;;;;;;-12.24;74.40;98953.85;1731535;82;22309;-78
2021/01/16 04:12:34;;;;;;;16.48;6.00;;;;;;;-12.36;74.77;98968.05;1731424;82;21504;-78
2021/01/16 04:15:06;;;;;;;23.22;6.70;;;;;;;-12.41;74.91;98973.56;1731443;82;20945;-77
2021/01/16 04:17:35;;;;;;;17.05;5.53;;;;;;;-12.43;75.14;98967.64;1731464;82;20938;-77
2021/01/16 04:20:04;;;;;;;16.70;5.72;;;;;;;-12.44;75.26;98972.11;1731453;82;20934;-76
2021/01/16 04:22:37;;;;;;;16.80;5.35;;;;;;;-12.49;74.87;98972.33;1731535;82;21346;-75
2021/01/16 04:25:07;;;;;;;18.15;5.37;;;;;;;-12.56;74.63;98981.99;1731450;82;20969;-75
2021/01/16 04:27:35;;;;;;;15.08;5.90;;;;;;;-12.67;75.83;98982.76;1731529;82;21072;-76
2021/01/16 04:30:05;;;;;;;20.37;6.15;;;;;;;-12.77;75.03;98995.45;1731460;82;21496;-75
2021/01/16 04:32:34;;;;;;;14.53;4.85;;;;;;;-12.86;75.02;99001.81;1731723;82;20942;-74
2021/01/16 04:35:02;;;;;;;16.20;5.78;;;;;;;-12.91;74.92;99008.13;1731448;82;21378;-74
2021/01/16 04:37:30;;;;;;;22.37;6.35;;;;;;;-12.94;75.29;99001.87;1731511;82;21126;-74
2021/01/16 04:39:58;;;;;;;17.10;6.67;;;;;;;-12.94;75.13;99016.91;1731413;82;20997;-73
2021/01/16 04:42:25;;;;;;;21.77;7.08;;;;;;;-12.94;74.85;99020.38;1731520;82;21490;-71
2021/01/16 04:44:53;;;;;;;22.07;6.53;;;;;;;-12.99;75.45;99018.77;1731473;82;21499;-73
2021/01/16 04:47:26;;;;;;;25.90;7.70;;;;;;;-13.08;74.82;99014.05;1708877;82;21144;-72
2021/01/16 04:49:53;;;;;;;24.67;7.42;;;;;;;-13.24;74.17;99012.89;1711530;82;21000;-76
2021/01/16 04:52:27;;;;;;;24.45;8.05;;;;;;;-13.40;74.28;99015.67;1760622;81;21494;-76
2021/01/16 04:54:55;;;;;;;28.65;7.92;;;;;;;-13.58;73.06;99014.63;1730520;83;21095;-73
2021/01/16 04:57:24;;;;;;;21.35;5.20;;;;;;;-13.74;73.63;99018.19;1760637;81;20959;-75
2021/01/16 04:59:53;;;;;;;17.02;5.28;;;;;;;-13.82;73.45;99016.91;1760606;81;21354;-75
2021/01/16 05:02:24;;;;;;;15.55;5.17;;;;;;;-13.96;73.57;99027.40;1760566;81;20968;-74
2021/01/16 05:04:52;;;;;;;26.23;7.70;;;;;;;-14.09;73.63;99022.17;1760893;81;20928;-73
2021/01/16 05:07:19;;;;;;;23.25;6.62;;;;;;;-14.18;73.61;99025.02;1760589;81;20956;-76
2021/01/16 05:09:47;;;;;;;24.02;6.85;;;;;;;-14.22;73.99;99030.30;1760674;81;21154;-73
2021/01/16 05:12:49;;;;;;;18.77;6.92;;;;;;;-14.23;74.88;99020.74;1760557;81;21352;-75
2021/01/16 05:15:25;;;;;;;22.15;6.60;;;;;;;-14.27;75.16;99024.22;1760542;81;20988;-76
2021/01/16 05:18:09;;;;;;;19.12;5.42;;;;;;;-14.37;74.21;99028.37;1744600;81;20940;-72
2021/01/16 05:20:39;;;;;;;27.17;8.43;;;;;;;-14.46;74.60;99021.53;1760684;81;21012;-75
2021/01/16 05:23:12;;;;;;;27.20;7.28;;;;;;;-14.53;74.38;99025.02;1761421;81;21007;-73
2021/01/16 05:25:52;;;;;;;22.93;6.63;;;;;;;-14.62;73.60;99026.84;1759705;81;21193;-72
2021/01/16 05:28:22;;;;;;;27.80;8.08;;;;;;;-14.70;73.55;99027.67;1730650;81;21079;-71
2021/01/16 05:31:06;;;;;;;20.57;6.72;;;;;;;-14.77;74.13;99029.34;1731211;82;21155;-71
2021/01/16 05:33:37;;;;;;;27.67;8.73;;;;;;;-14.80;73.61;99019.13;1731198;82;21108;-71
2021/01/16 05:36:10;;;;;;;25.37;6.95;;;;;;;-14.88;73.42;99024.90;1731221;82;21155;-72
2021/01/16 05:38:41;;;;;;;24.20;7.62;;;;;;;-14.95;74.15;99018.16;1731071;82;22103;-73
2021/01/16 05:41:14;;;;;;;29.70;9.03;;;;;;;-14.99;74.37;99022.60;1730246;82;21151;-72
2021/01/16 05:43:42;;;;;;;30.88;9.30;;;;;;;-15.11;73.84;99028.23;1749049;82;28175;-74
2021/01/16 05:46:13;;;;;;;38.80;11.18;;;;;;;-15.19;73.56;99034.81;1730920;82;21119;-73
2021/01/16 05:48:41;;;;;;;29.25;9.10;;;;;;;-15.23;73.97;99043.20;1748828;82;20976;-73
2021/01/16 05:51:08;;;;;;;31.57;8.43;;;;;;;-15.23;73.77;99045.34;1728523;82;21190;-72
2021/01/16 05:53:36;;;;;;;29.55;8.60;;;;;;;-15.26;72.96;99048.80;1747870;80;21101;-71
2021/01/16 05:56:05;;;;;;;26.85;9.43;;;;;;;-15.29;72.11;99049.95;1790971;80;20925;-72
2021/01/16 05:58:34;;;;;;;32.23;9.45;;;;;;;-15.32;73.08;99048.95;1763266;80;20920;-75
2021/01/16 06:01:06;;;;;;;26.75;9.65;;;;;;;-15.36;72.65;99045.00;1791323;80;20933;-73
2021/01/16 06:03:37;;;;;;;27.25;8.68;;;;;;;-15.38;72.38;99045.66;1791415;80;22293;-75
2021/01/16 06:06:10;;;;;;;19.02;6.25;;;;;;;-15.41;72.19;99052.07;1791393;79;21044;-73
2021/01/16 06:08:55;;;;;;;20.70;7.35;;;;;;;-15.41;73.36;99056.51;1791447;79;20977;-74
2021/01/16 06:11:23;;;;;;;20.25;6.47;;;;;;;-15.41;72.65;99061.77;1791277;80;20882;-73
2021/01/16 06:13:53;;;;;;;26.17;7.70;;;;;;;-15.48;72.21;99059.45;1791284;78;20981;-73
2021/01/16 06:16:21;;;;;;;21.97;5.65;;;;;;;-15.51;72.62;99061.09;1763470;80;22029;-74
2021/01/16 06:18:55;;;;;;;28.55;7.80;;;;;;;-15.52;72.77;99062.91;1791242;79;21524;-74
2021/01/16 06:21:29;;;;;;;23.35;7.22;;;;;;;-15.50;72.75;99069.32;1791690;78;20934;-74
2021/01/16 06:23:59;;;;;;;32.33;9.43;;;;;;;-15.51;72.86;99069.81;1814532;79;21124;-74
2021/01/16 06:26:27;;;;;;;27.80;8.70;;;;;;;-15.46;73.56;99085.94;1814166;79;20887;-74
2021/01/16 06:29:02;;;;;;;31.93;10.40;;;;;;;-15.40;73.59;99085.80;1814157;79;21190;-73
2021/01/16 06:31:32;;;;;;;23.38;7.22;;;;;;;-15.40;72.64;99083.98;1814126;79;21010;-74
2021/01/16 06:34:06;;;;;;;26.63;8.57;;;;;;;-15.44;72.56;99085.78;1814452;79;21053;-74
2021/01/16 06:36:36;;;;;;;27.48;8.65;;;;;;;-15.46;73.04;99094.33;1814210;79;21552;-74
2021/01/16 06:39:07;;;;;;;28.55;7.62;;;;;;;-15.49;71.99;99098.60;1814303;79;20942;-74
2021/01/16 06:41:36;;;;;;;18.25;6.70;;;;;;;-15.56;70.99;99103.68;1814187;79;22566;-73
2021/01/16 06:44:16;;;;;;;24.40;7.45;;;;;;;-15.62;71.65;99106.19;1785986;79;20986;-73
2021/01/16 06:46:48;;;;;;;29.07;8.08;;;;;;;-15.61;71.61;99120.99;1814235;79;20929;-74
2021/01/16 06:49:24;;;;;;;26.48;9.18;;;;;;;-15.55;70.81;99132.95;1814176;79;21585;-74
2021/01/16 06:51:53;;;;;;;21.90;6.12;;;;;;;-15.53;71.54;99130.16;1813927;79;21042;-74
2021/01/16 06:54:29;;;;;;;31.75;9.25;;;;;;;-15.47;71.25;99123.77;1773784;80;21804;-75
2021/01/16 06:57:12;;;;;;;32.33;9.13;;;;;;;-15.27;70.09;99141.92;1773024;81;20988;-75
2021/01/16 06:59:44;;;;;;;37.42;9.05;;;;;;;-14.85;69.76;99154.97;1772997;80;21075;-75
2021/01/16 07:02:37;;;;;;;23.75;7.12;;;;;;;-14.52;68.58;99151.86;1814138;79;21025;-73
2021/01/16 07:05:12;;;;;;;15.58;6.37;;;;;;;-14.36;67.44;99157.88;1814186;78;21494;-76
2021/01/16 07:07:41;;;;;;;27.25;7.97;;;;;;;-14.22;65.10;99155.06;1813206;79;21815;-76
2021/01/16 07:10:11;;;;;;;28.62;8.40;;;;;;;-14.00;65.76;99164.09;1814028;78;21002;-74
2021/01/16 07:12:41;;;;;;;40.48;10.23;;;;;;;-13.67;64.30;99155.56;1785106;79;21006;-74
2021/01/16 07:15:10;;;;;;;35.55;11.22;;;;;;;-13.38;63.43;99152.31;1814146;78;21014;-77
2021/01/16 07:17:38;;;;;;;43.68;11.88;;;;;;;-13.03;63.50;99157.52;1814232;79;21582;-77
2021/01/16 07:20:07;;;;;;;25.12;8.10;;;;;;;-12.68;63.89;99154.78;1814131;79;21037;-75
2021/01/16 07:22:38;;;;;;;27.65;7.85;;;;;;;-12.40;62.90;99148.45;1813972;79;21046;-76
2021/01/16 07:25:06;;;;;;;45.23;12.33;;;;;;;-12.09;60.32;99155.74;1813518;79;21077;-76
2021/01/16 07:27:34;;;;;;;63.45;14.95;;;;;;;-11.95;60.95;99151.47;1774694;80;20932;-76
2021/01/16 07:30:05;;;;;;;51.28;13.75;;;;;;;-11.82;60.59;99152.98;1815423;77;21033;-74
2021/01/16 07:32:44;;;;;;;28.83;8.03;;;;;;;-11.75;56.86;99155.20;1773088;80;21366;-74
2021/01/16 07:35:20;;;;;;;34.92;10.82;;;;;;;-11.87;57.01;99156.68;1815161;79;21148;-74
2021/01/16 07:37:52;;;;;;;37.20;10.65;;;;;;;-11.85;56.67;99163.94;1774180;80;21170;-75
2021/01/16 07:40:27;;;;;;;27.37;8.23;;;;;;;-11.82;55.81;99173.34;1815054;79;21547;-76
2021/01/16 07:43:00;;;;;;;25.45;7.17;;;;;;;-11.82;54.86;99176.81;1815942;79;21045;-72
2021/01/16 07:45:29;;;;;;;25.92;8.70;;;;;;;-11.82;56.20;99176.00;1774639;80;21538;-73
2021/01/16 07:48:00;;;;;;;23.75;7.95;;;;;;;-11.71;55.91;99175.02;1786447;79;20998;-72
2021/01/16 07:50:37;;;;;;;19.07;6.87;;;;;;;-11.58;55.73;99177.03;1814369;79;21687;-73
2021/01/16 07:53:08;;;;;;;22.67;7.92;;;;;;;-11.51;54.22;99182.39;1814306;79;20872;-73
2021/01/16 07:55:40;;;;;;;;;;;;;;;-11.45;54.82;99189.59;1817001;78;21128;-73
2021/01/16 07:58:36;;;;;;;20.60;6.42;;;;;;;-11.29;53.59;99184.11;1814346;79;21400;-74
2021/01/16 08:01:17;;;;;;;16.67;6.50;;;;;;;-11.34;51.72;99187.31;1809354;77;20998;-73
2021/01/16 08:04:12;;;;;;;18.42;6.90;;;;;;;-11.37;52.13;99194.30;1816451;79;21085;-81
2021/01/16 08:06:48;;;;;;;21.50;7.37;;;;;;;-11.32;52.00;99195.58;1721011;79;21221;-83
2021/01/16 08:09:20;;;;;;;21.02;7.85;;;;;;;-11.17;51.75;99197.72;1819012;77;21143;-79
2021/01/16 08:11:50;;;;;;;18.27;6.17;;;;;;;-11.14;50.48;99203.47;1787360;77;22266;-87
2021/01/16 08:14:21;;;;;;;21.73;6.90;;;;;;;-11.15;52.26;99199.67;1779559;80;20978;-91
2021/01/16 08:16:59;;;;;;;27.32;6.70;;;;;;;-11.11;51.95;99210.23;1779729;80;21160;-82
2021/01/16 08:19:35;;;;;;;20.82;5.80;;;;;;;-11.13;50.86;99210.91;1779713;80;21124;-83
2021/01/16 08:22:03;;;;;;;26.30;7.90;;;;;;;-10.96;50.55;99212.33;1776221;80;21117;-81
2021/01/16 08:24:31;;;;;;;16.15;6.67;;;;;;;-10.72;50.96;99219.12;1691631;82;21826;-83
2021/01/16 08:27:03;;;;;;;20.70;6.33;;;;;;;-10.73;49.52;99216.16;1741793;82;21172;-76
2021/01/16 08:29:31;;;;;;;24.20;6.15;;;;;;;-10.75;49.31;99221.66;1742559;82;20939;-77
2021/01/16 08:32:10;;;;;;;13.32;5.62;;;;;;;-10.74;50.52;99225.13;1742663;82;21150;-82
2021/01/16 08:34:59;;;;;;;18.75;6.62;;;;;;;-10.71;49.00;99212.31;1728521;83;20985;-75
2021/01/16 08:37:36;;;;;;;22.20;8.35;;;;;;;-10.65;48.88;99213.90;1815954;79;21238;-73
2021/01/16 08:40:08;;;;;;;23.62;7.55;;;;;;;-10.52;50.13;99219.34;1815948;79;20922;-78
2021/01/16 08:42:54;;;;;;;25.23;7.83;;;;;;;-10.33;50.75;99209.41;1815991;79;20994;-77
2021/01/16 08:45:22;;;;;;;18.40;8.05;;;;;;;-10.17;48.23;99202.98;1774748;80;20924;-73
2021/01/16 08:47:54;;;;;;;19.70;6.72;;;;;;;-10.36;47.42;99213.77;1814732;79;21129;-73
2021/01/16 08:50:28;;;;;;;19.62;6.62;;;;;;;-10.40;47.06;99208.55;1773359;80;21189;-75
2021/01/16 08:52:56;;;;;;;22.13;8.35;;;;;;;-10.56;47.44;99212.27;1787735;79;21553;-73
2021/01/16 08:55:28;;;;;;;21.65;7.40;;;;;;;-10.52;47.19;99220.67;1786450;79;21125;-73
2021/01/16 08:58:09;;;;;;;21.10;7.85;;;;;;;-10.49;50.03;99220.30;1774569;80;28157;-74
2021/01/16 09:00:39;;;;;;;17.62;6.67;;;;;;;-10.13;49.52;99215.69;1774788;80;21032;-70
2021/01/16 09:03:12;;;;;;;15.50;4.80;;;;;;;-9.95;46.13;99209.92;1816041;79;21186;-73
2021/01/16 09:05:40;;;;;;;;;;;;;;;-10.19;45.92;99220.44;1777339;80;20956;-72
2021/01/16 09:08:25;;;;;;;19.70;6.12;;;;;;;-10.20;48.20;99219.33;1774731;80;20183;-68
2021/01/16 09:10:57;;;;;;;18.05;6.67;;;;;;;-10.06;46.20;99221.88;1815886;79;20935;-71
2021/01/16 09:13:27;;;;;;;18.85;5.60;;;;;;;-9.92;47.30;99211.38;1813639;79;21057;-71
2021/01/16 09:15:56;;;;;;;18.52;5.97;;;;;;;-9.67;46.73;99210.72;1774759;80;21629;-71
2021/01/16 09:18:26;;;;;;;16.48;4.87;;;;;;;-9.52;46.33;99217.26;1815907;79;20950;-70
2021/01/16 09:20:58;;;;;;;18.32;6.00;;;;;;;-9.55;44.73;99216.32;1774717;80;21506;-70
2021/01/16 09:23:36;;;;;;;21.00;6.75;;;;;;;-9.52;45.13;99217.26;1774835;80;21664;-71
2021/01/16 09:26:10;;;;;;;22.05;6.50;;;;;;;-9.43;44.40;99209.45;1815975;78;21061;-71
2021/01/16 09:28:51;;;;;;;24.75;5.95;;;;;;;-9.31;45.40;99212.38;1815904;77;21245;-70
2021/01/16 09:31:35;;;;;;;17.50;5.83;;;;;;;-9.15;44.03;99213.87;1774623;80;21000;-72
2021/01/16 09:34:09;;;;;;;17.52;6.22;;;;;;;-9.14;42.90;99211.52;1787577;79;21077;-71
2021/01/16 09:36:41;;;;;;;19.00;6.92;;;;;;;-9.04;43.54;99204.00;1815992;79;21575;-71
2021/01/16 09:39:28;;;;;;;20.53;8.33;;;;;;;-9.00;44.13;99194.09;1775004;80;21023;-70
2021/01/16 09:41:59;;;;;;;23.85;6.15;;;;;;;-8.95;43.86;99194.84;1774662;80;21373;-69
2021/01/16 09:44:45;;;;;;;18.52;7.00;;;;;;;-8.93;44.94;99192.80;1774654;80;20956;-71
2021/01/16 09:47:30;;;;;;;15.05;5.67;;;;;;;-8.80;43.16;99204.00;1746598;80;21491;-72
2021/01/16 09:50:11;;;;;;;20.75;6.90;;;;;;;-8.78;42.11;99200.63;1810568;79;21032;-69
2021/01/16 09:52:49;;;;;;;16.87;6.58;;;;;;;-8.84;43.16;99200.91;1776816;80;21146;-71
2021/01/16 09:55:25;;;;;;;22.30;7.60;;;;;;;-8.71;42.13;99190.83;1755396;81;21365;-72
2021/01/16 09:57:53;;;;;;;16.37;6.35;;;;;;;-8.67;42.06;99194.73;1756249;81;20948;-71
2021/01/16 10:00:28;;;;;;;16.42;5.33;;;;;;;-8.54;43.67;99199.23;1756227;81;20987;-71
2021/01/16 10:03:08;;;;;;;18.52;7.53;;;;;;;-8.51;41.89;99189.52;1756265;81;20963;-73
2021/01/16 10:05:37;;;;;;;17.23;6.80;;;;;;;-8.69;41.65;99193.59;1756282;81;21075;-71
2021/01/16 10:08:06;;;;;;;16.23;5.05;;;;;;;-8.67;42.07;99192.07;1756344;81;22236;-73
2021/01/16 10:10:47;;;;;;;18.80;6.12;;;;;;;-8.48;41.91;99183.28;1756279;81;21494;-73
2021/01/16 10:13:36;;;;;;;14.40;5.83;;;;;;;-8.41;41.71;99179.30;1756503;81;20940;-72
2021/01/16 10:16:06;;;;;;;19.48;6.08;;;;;;;-8.42;41.64;99181.66;1756334;81;21497;-70
2021/01/16 10:18:34;;;;;;;12.70;4.42;;;;;;;-8.58;41.47;99176.20;1756231;81;21469;-71
2021/01/16 10:21:09;;;;;;;22.65;7.85;;;;;;;-8.70;41.73;99175.99;1761359;81;21380;-72
2021/01/16 10:23:41;;;;;;;28.75;7.60;;;;;;;-8.59;45.58;99177.22;1761266;81;21624;-72
2021/01/16 10:26:12;;;;;;;21.40;6.80;;;;;;;-8.23;43.99;99175.51;1761443;81;21488;-72
2021/01/16 10:28:47;;;;;;;20.68;7.00;;;;;;;-7.77;43.38;99174.15;1761263;80;21157;-71
2021/01/16 10:31:24;;;;;;;16.00;6.45;;;;;;;-7.46;42.66;99177.97;1761087;81;21054;-71
2021/01/16 10:33:52;;;;;;;37.00;10.28;;;;;;;-7.27;40.46;99164.28;1735926;81;21224;-71
2021/01/16 10:36:20;;;;;;;18.90;7.37;;;;;;;-7.22;40.62;99166.62;1727116;80;21560;-62
2021/01/16 10:38:50;;;;;;;15.35;6.65;;;;;;;-7.32;39.36;99167.06;1756290;81;21177;-64
2021/01/16 10:41:35;;;;;;;19.13;6.60;;;;;;;-7.43;40.08;99170.37;1761693;81;21038;-74
2021/01/16 10:44:10;;;;;;;20.80;7.12;;;;;;;-7.46;40.71;99172.13;1760604;80;21475;-67
2021/01/16 10:46:43;;;;;;;15.75;6.70;;;;;;;-7.70;41.27;99154.16;1760927;81;22625;-68
2021/01/16 10:49:22;;;;;;;18.20;5.80;;;;;;;-7.72;40.69;99164.20;1760249;81;21149;-69
2021/01/16 10:51:58;;;;;;;17.20;6.15;;;;;;;-7.60;40.69;99159.88;1761149;81;21121;-68
2021/01/16 10:54:26;;;;;;;17.75;5.78;;;;;;;-7.72;39.02;99146.87;1761282;81;21153;-68
2021/01/16 10:57:07;;;;;;;18.12;6.28;;;;;;;-8.06;40.24;99159.41;1761262;81;21078;-70
2021/01/16 10:59:37;;;;;;;;;;;;;;;-8.28;40.73;99168.64;1763899;81;21058;-70
2021/01/16 11:02:11;;;;;;;16.52;5.95;;;;;;;-8.38;41.59;99166.41;1761295;81;20149;-69
2021/01/16 11:04:40;;;;;;;19.23;6.62;;;;;;;-8.01;41.19;99164.11;1761422;81;21569;-74
2021/01/16 11:07:10;;;;;;;19.73;6.17;;;;;;;-7.82;42.36;99151.30;1761302;81;21110;-73
2021/01/16 11:09:42;;;;;;;16.87;5.92;;;;;;;-7.80;41.87;99152.42;1761273;81;21125;-73
2021/01/16 11:12:11;;;;;;;16.23;6.08;;;;;;;-7.79;40.22;99145.55;1761580;81;21143;-74
2021/01/16 11:14:42;;;;;;;22.17;6.62;;;;;;;-8.04;40.06;99140.55;1734680;81;21145;-73
2021/01/16 11:17:11;;;;;;;17.80;6.10;;;;;;;-8.13;40.99;99143.97;1761264;81;21616;-73
2021/01/16 11:19:43;;;;;;;22.65;6.12;;;;;;;-8.09;40.39;99143.86;1760496;81;21153;-71
2021/01/16 11:22:14;;;;;;;21.33;7.22;;;;;;;-7.97;41.02;99147.20;1760233;81;21070;-75
2021/01/16 11:24:56;;;;;;;22.22;7.35;;;;;;;-7.92;42.11;99150.08;1759922;81;21388;-70
2021/01/16 11:27:29;;;;;;;17.20;6.15;;;;;;;-7.77;42.83;99150.67;1759539;81;26673;-68
2021/01/16 11:30:17;;;;;;;19.15;6.12;;;;;;;-7.80;40.91;99144.43;1759781;81;20992;-70
2021/01/16 11:32:44;;;;;;;14.55;5.87;;;;;;;-8.30;41.96;99145.39;1732530;81;21055;-73
2021/01/16 11:35:13;;;;;;;17.52;5.97;;;;;;;-8.55;42.43;99143.03;1732398;81;21076;-69
2021/01/16 11:37:51;;;;;;;22.67;7.28;;;;;;;-8.53;42.76;99146.31;1759732;81;21372;-77
2021/01/16 11:40:33;;;;;;;20.23;7.08;;;;;;;-8.28;42.03;99137.20;1750281;81;21010;-76
2021/01/16 11:43:10;;;;;;;17.20;6.92;;;;;;;-8.15;41.33;99138.02;1729431;81;21608;-80
2021/01/16 11:45:38;;;;;;;19.98;7.75;;;;;;;-8.43;41.90;99140.08;1753560;80;21552;-73